sensor_id;sensor_type;location;lat;lon;timestamp;P1;durP1;ratioP1;P2;durP2;ratioP2
52272;SDS011;38227;50.942;4.016;2023-03-01T00:02:14;26.77;;;14.77;;
52272;SDS011;38227;50.942;4.016;2023-03-01T00:04:42;25.20;;;15.20;;
52272;SDS011;38227;50.942;4.016;2023-03-01T00:07:11;25.90;;;15.30;;
52272;SDS011;38227;50.942;4.016;2023-03-01T00:09:47;23.40;;;15.55;;
52272;SDS011;38227;50.942;4.016;2023-03-01T00:12:15;28.67;;;15.45;;
52272;SDS011;38227;50.942;4.016;2023-03-01T00:14:45;24.37;;;15.32;;
52272;SDS011;38227;50.942;4.016;2023-03-01T00:17:22;25.02;;;15.35;;
52272;SDS011;38227;50.942;4.016;2023-03-01T00:19:51;24.70;;;15.45;;
52272;SDS011;38227;50.942;4.016;2023-03-01T00:22:27;25.40;;;15.10;;
52272;SDS011;38227;50.942;4.016;2023-03-01T00:24:56;24.90;;;14.90;;
52272;SDS011;38227;50.942;4.016;2023-03-01T00:27:26;23.70;;;14.43;;
52272;SDS011;38227;50.942;4.016;2023-03-01T00:29:57;26.17;;;14.30;;
52272;SDS011;38227;50.942;4.016;2023-03-01T00:32:26;22.92;;;14.25;;
52272;SDS011;38227;50.942;4.016;2023-03-01T00:35:05;24.37;;;13.95;;
52272;SDS011;38227;50.942;4.016;2023-03-01T00:37:36;24.77;;;14.20;;
52272;SDS011;38227;50.942;4.016;2023-03-01T00:40:05;23.67;;;14.05;;
52272;SDS011;38227;50.942;4.016;2023-03-01T00:42:37;24.73;;;13.50;;
52272;SDS011;38227;50.942;4.016;2023-03-01T00:45:05;21.87;;;14.32;;
52272;SDS011;38227;50.942;4.016;2023-03-01T00:47:37;21.73;;;14.00;;
52272;SDS011;38227;50.942;4.016;2023-03-01T00:50:08;25.37;;;14.20;;
52272;SDS011;38227;50.942;4.016;2023-03-01T00:52:37;24.33;;;14.65;;
52272;SDS011;38227;50.942;4.016;2023-03-01T00:55:06;22.92;;;13.88;;
52272;SDS011;38227;50.942;4.016;2023-03-01T00:57:36;23.67;;;14.07;;
52272;SDS011;38227;50.942;4.016;2023-03-01T01:00:05;22.08;;;13.70;;
52272;SDS011;38227;50.942;4.016;2023-03-01T01:02:35;25.77;;;14.85;;
52272;SDS011;38227;50.942;4.016;2023-03-01T01:05:05;21.25;;;14.00;;
52272;SDS011;38227;50.942;4.016;2023-03-01T01:07:37;23.12;;;13.13;;
52272;SDS011;38227;50.942;4.016;2023-03-01T01:10:07;23.73;;;14.00;;
52272;SDS011;38227;50.942;4.016;2023-03-01T01:12:42;23.75;;;14.13;;
52272;SDS011;38227;50.942;4.016;2023-03-01T01:15:13;21.33;;;13.52;;
52272;SDS011;38227;50.942;4.016;2023-03-01T01:17:50;22.23;;;13.50;;
52272;SDS011;38227;50.942;4.016;2023-03-01T01:20:20;23.40;;;14.27;;
52272;SDS011;38227;50.942;4.016;2023-03-01T01:22:51;22.58;;;14.20;;
52272;SDS011;38227;50.942;4.016;2023-03-01T01:25:21;24.10;;;14.70;;
52272;SDS011;38227;50.942;4.016;2023-03-01T01:28:00;23.45;;;13.68;;
52272;SDS011;38227;50.942;4.016;2023-03-01T01:30:30;24.25;;;14.15;;
52272;SDS011;38227;50.942;4.016;2023-03-01T01:33:01;22.37;;;13.35;;
52272;SDS011;38227;50.942;4.016;2023-03-01T01:35:30;21.90;;;13.75;;
52272;SDS011;38227;50.942;4.016;2023-03-01T01:38:02;22.90;;;13.15;;
52272;SDS011;38227;50.942;4.016;2023-03-01T01:40:31;21.83;;;12.90;;
52272;SDS011;38227;50.942;4.016;2023-03-01T01:46:29;21.58;;;12.73;;
52272;SDS011;38227;50.942;4.016;2023-03-01T01:48:59;25.08;;;12.68;;
52272;SDS011;38227;50.942;4.016;2023-03-01T01:51:37;23.67;;;12.88;;
52272;SDS011;38227;50.942;4.016;2023-03-01T01:54:10;19.80;;;12.23;;
52272;SDS011;38227;50.942;4.016;2023-03-01T01:56:59;21.30;;;11.65;;
52272;SDS011;38227;50.942;4.016;2023-03-01T02:01:59;20.58;;;12.45;;
52272;SDS011;38227;50.942;4.016;2023-03-01T02:04:31;21.30;;;12.48;;
52272;SDS011;38227;50.942;4.016;2023-03-01T02:07:05;17.40;;;11.48;;
52272;SDS011;38227;50.942;4.016;2023-03-01T02:09:47;23.20;;;12.48;;
52272;SDS011;38227;50.942;4.016;2023-03-01T02:12:17;21.00;;;11.80;;
52272;SDS011;38227;50.942;4.016;2023-03-01T02:14:48;17.42;;;12.60;;
52272;SDS011;38227;50.942;4.016;2023-03-01T02:17:17;20.02;;;12.13;;
52272;SDS011;38227;50.942;4.016;2023-03-01T02:19:56;20.35;;;12.23;;
52272;SDS011;38227;50.942;4.016;2023-03-01T02:22:46;22.23;;;11.77;;
52272;SDS011;38227;50.942;4.016;2023-03-01T02:25:27;21.62;;;12.75;;
52272;SDS011;38227;50.942;4.016;2023-03-01T02:28:30;21.12;;;12.63;;
52272;SDS011;38227;50.942;4.016;2023-03-01T02:31:03;21.83;;;12.02;;
52272;SDS011;38227;50.942;4.016;2023-03-01T02:33:49;22.85;;;12.90;;
52272;SDS011;38227;50.942;4.016;2023-03-01T02:36:21;21.37;;;12.07;;
52272;SDS011;38227;50.942;4.016;2023-03-01T02:38:51;21.67;;;12.60;;
52272;SDS011;38227;50.942;4.016;2023-03-01T02:41:25;21.15;;;12.60;;
52272;SDS011;38227;50.942;4.016;2023-03-01T02:43:54;19.20;;;12.13;;
52272;SDS011;38227;50.942;4.016;2023-03-01T02:46:41;19.83;;;12.65;;
52272;SDS011;38227;50.942;4.016;2023-03-01T02:49:37;19.00;;;12.37;;
52272;SDS011;38227;50.942;4.016;2023-03-01T02:55:14;19.45;;;12.48;;
52272;SDS011;38227;50.942;4.016;2023-03-01T02:57:44;19.12;;;12.10;;
52272;SDS011;38227;50.942;4.016;2023-03-01T03:00:17;21.37;;;11.48;;
52272;SDS011;38227;50.942;4.016;2023-03-01T03:02:58;21.37;;;11.63;;
52272;SDS011;38227;50.942;4.016;2023-03-01T03:05:27;22.52;;;12.00;;
52272;SDS011;38227;50.942;4.016;2023-03-01T03:08:00;19.05;;;12.27;;
52272;SDS011;38227;50.942;4.016;2023-03-01T03:10:31;20.35;;;12.02;;
52272;SDS011;38227;50.942;4.016;2023-03-01T03:13:04;18.98;;;12.57;;
52272;SDS011;38227;50.942;4.016;2023-03-01T03:15:33;17.20;;;12.15;;
52272;SDS011;38227;50.942;4.016;2023-03-01T03:18:03;24.37;;;12.20;;
52272;SDS011;38227;50.942;4.016;2023-03-01T03:20:32;21.80;;;11.90;;
52272;SDS011;38227;50.942;4.016;2023-03-01T03:23:02;17.83;;;11.27;;
52272;SDS011;38227;50.942;4.016;2023-03-01T03:25:30;21.73;;;12.93;;
52272;SDS011;38227;50.942;4.016;2023-03-01T03:28:02;20.23;;;11.63;;
52272;SDS011;38227;50.942;4.016;2023-03-01T03:30:36;20.95;;;11.65;;
52272;SDS011;38227;50.942;4.016;2023-03-01T03:33:05;20.67;;;11.90;;
52272;SDS011;38227;50.942;4.016;2023-03-01T03:35:45;17.27;;;11.65;;
52272;SDS011;38227;50.942;4.016;2023-03-01T03:38:15;18.42;;;11.55;;
52272;SDS011;38227;50.942;4.016;2023-03-01T03:40:45;19.40;;;11.38;;
52272;SDS011;38227;50.942;4.016;2023-03-01T03:43:20;19.60;;;12.05;;
52272;SDS011;38227;50.942;4.016;2023-03-01T03:45:49;22.77;;;12.98;;
52272;SDS011;38227;50.942;4.016;2023-03-01T03:48:21;18.98;;;11.88;;
52272;SDS011;38227;50.942;4.016;2023-03-01T03:50:52;20.60;;;11.85;;
52272;SDS011;38227;50.942;4.016;2023-03-01T03:53:23;20.12;;;11.68;;
52272;SDS011;38227;50.942;4.016;2023-03-01T03:55:53;19.80;;;12.02;;
52272;SDS011;38227;50.942;4.016;2023-03-01T03:58:22;20.15;;;11.82;;
52272;SDS011;38227;50.942;4.016;2023-03-01T04:00:54;18.85;;;11.90;;
52272;SDS011;38227;50.942;4.016;2023-03-01T04:03:25;24.83;;;12.00;;
52272;SDS011;38227;50.942;4.016;2023-03-01T04:05:52;18.98;;;11.57;;
52272;SDS011;38227;50.942;4.016;2023-03-01T04:08:22;18.67;;;11.85;;
52272;SDS011;38227;50.942;4.016;2023-03-01T04:10:52;18.73;;;11.75;;
52272;SDS011;38227;50.942;4.016;2023-03-01T04:13:25;21.87;;;11.82;;
52272;SDS011;38227;50.942;4.016;2023-03-01T04:15:54;20.48;;;11.63;;
52272;SDS011;38227;50.942;4.016;2023-03-01T04:18:24;18.90;;;11.82;;
52272;SDS011;38227;50.942;4.016;2023-03-01T04:20:55;17.95;;;12.00;;
52272;SDS011;38227;50.942;4.016;2023-03-01T04:23:25;18.35;;;11.50;;
52272;SDS011;38227;50.942;4.016;2023-03-01T04:25:57;18.48;;;11.73;;
52272;SDS011;38227;50.942;4.016;2023-03-01T04:28:30;20.65;;;11.80;;
52272;SDS011;38227;50.942;4.016;2023-03-01T04:31:03;18.37;;;11.90;;
52272;SDS011;38227;50.942;4.016;2023-03-01T04:33:42;20.25;;;12.13;;
52272;SDS011;38227;50.942;4.016;2023-03-01T04:38:43;25.75;;;12.00;;
52272;SDS011;38227;50.942;4.016;2023-03-01T04:41:15;19.02;;;11.95;;
52272;SDS011;38227;50.942;4.016;2023-03-01T04:43:44;24.83;;;11.90;;
52272;SDS011;38227;50.942;4.016;2023-03-01T04:46:14;21.77;;;11.63;;
52272;SDS011;38227;50.942;4.016;2023-03-01T04:48:46;18.52;;;12.45;;
52272;SDS011;38227;50.942;4.016;2023-03-01T04:51:17;20.23;;;12.30;;
52272;SDS011;38227;50.942;4.016;2023-03-01T04:53:47;23.73;;;12.35;;
52272;SDS011;38227;50.942;4.016;2023-03-01T04:56:14;19.83;;;12.07;;
52272;SDS011;38227;50.942;4.016;2023-03-01T04:58:49;18.10;;;11.75;;
52272;SDS011;38227;50.942;4.016;2023-03-01T05:01:25;17.60;;;11.77;;
52272;SDS011;38227;50.942;4.016;2023-03-01T05:03:53;18.92;;;11.45;;
52272;SDS011;38227;50.942;4.016;2023-03-01T05:06:22;20.00;;;11.77;;
52272;SDS011;38227;50.942;4.016;2023-03-01T05:08:53;18.92;;;11.63;;
52272;SDS011;38227;50.942;4.016;2023-03-01T05:11:22;22.65;;;12.27;;
52272;SDS011;38227;50.942;4.016;2023-03-01T05:13:49;20.27;;;12.35;;
52272;SDS011;38227;50.942;4.016;2023-03-01T05:16:20;20.88;;;12.37;;
52272;SDS011;38227;50.942;4.016;2023-03-01T05:18:58;21.62;;;12.07;;
52272;SDS011;38227;50.942;4.016;2023-03-01T05:21:27;21.33;;;12.25;;
52272;SDS011;38227;50.942;4.016;2023-03-01T05:23:58;21.40;;;12.37;;
52272;SDS011;38227;50.942;4.016;2023-03-01T05:26:28;19.70;;;12.18;;
52272;SDS011;38227;50.942;4.016;2023-03-01T05:28:59;19.00;;;11.98;;
52272;SDS011;38227;50.942;4.016;2023-03-01T05:31:27;22.67;;;12.18;;
52272;SDS011;38227;50.942;4.016;2023-03-01T05:33:56;23.38;;;13.20;;
52272;SDS011;38227;50.942;4.016;2023-03-01T05:36:28;19.50;;;12.60;;
52272;SDS011;38227;50.942;4.016;2023-03-01T05:38:57;20.52;;;12.80;;
52272;SDS011;38227;50.942;4.016;2023-03-01T05:41:33;24.52;;;12.70;;
52272;SDS011;38227;50.942;4.016;2023-03-01T05:44:01;26.12;;;13.77;;
52272;SDS011;38227;50.942;4.016;2023-03-01T05:46:31;25.40;;;14.23;;
52272;SDS011;38227;50.942;4.016;2023-03-01T05:49:01;26.08;;;13.88;;
52272;SDS011;38227;50.942;4.016;2023-03-01T05:51:30;25.85;;;13.13;;
52272;SDS011;38227;50.942;4.016;2023-03-01T05:53:59;26.37;;;13.13;;
52272;SDS011;38227;50.942;4.016;2023-03-01T05:56:28;26.17;;;13.80;;
52272;SDS011;38227;50.942;4.016;2023-03-01T05:59:03;23.25;;;13.00;;
52272;SDS011;38227;50.942;4.016;2023-03-01T06:01:33;23.62;;;14.27;;
52272;SDS011;38227;50.942;4.016;2023-03-01T06:04:11;21.95;;;13.40;;
52272;SDS011;38227;50.942;4.016;2023-03-01T06:06:39;23.95;;;14.30;;
52272;SDS011;38227;50.942;4.016;2023-03-01T06:09:07;24.25;;;12.98;;
52272;SDS011;38227;50.942;4.016;2023-03-01T06:11:36;21.73;;;13.25;;
52272;SDS011;38227;50.942;4.016;2023-03-01T06:14:07;25.55;;;14.43;;
52272;SDS011;38227;50.942;4.016;2023-03-01T06:16:39;26.33;;;13.77;;
52272;SDS011;38227;50.942;4.016;2023-03-01T06:19:08;22.90;;;13.85;;
52272;SDS011;38227;50.942;4.016;2023-03-01T06:21:44;25.45;;;13.45;;
52272;SDS011;38227;50.942;4.016;2023-03-01T06:24:14;26.35;;;13.48;;
52272;SDS011;38227;50.942;4.016;2023-03-01T06:26:52;22.75;;;12.95;;
52272;SDS011;38227;50.942;4.016;2023-03-01T06:29:21;25.73;;;13.80;;
52272;SDS011;38227;50.942;4.016;2023-03-01T06:31:58;25.10;;;14.05;;
52272;SDS011;38227;50.942;4.016;2023-03-01T06:34:26;28.08;;;13.25;;
52272;SDS011;38227;50.942;4.016;2023-03-01T06:36:54;24.65;;;14.15;;
52272;SDS011;38227;50.942;4.016;2023-03-01T06:39:22;23.62;;;13.77;;
52272;SDS011;38227;50.942;4.016;2023-03-01T06:41:52;24.73;;;14.05;;
52272;SDS011;38227;50.942;4.016;2023-03-01T06:44:23;20.65;;;13.30;;
52272;SDS011;38227;50.942;4.016;2023-03-01T06:46:54;25.75;;;12.88;;
52272;SDS011;38227;50.942;4.016;2023-03-01T06:49:25;22.65;;;13.20;;
52272;SDS011;38227;50.942;4.016;2023-03-01T06:51:56;27.25;;;13.68;;
52272;SDS011;38227;50.942;4.016;2023-03-01T06:54:26;25.85;;;13.90;;
52272;SDS011;38227;50.942;4.016;2023-03-01T06:57:04;24.17;;;13.40;;
52272;SDS011;38227;50.942;4.016;2023-03-01T06:59:35;23.52;;;13.10;;
52272;SDS011;38227;50.942;4.016;2023-03-01T07:02:03;25.92;;;13.73;;
52272;SDS011;38227;50.942;4.016;2023-03-01T07:04:31;24.00;;;13.45;;
52272;SDS011;38227;50.942;4.016;2023-03-01T07:07:03;28.02;;;13.48;;
52272;SDS011;38227;50.942;4.016;2023-03-01T07:09:33;28.17;;;14.50;;
52272;SDS011;38227;50.942;4.016;2023-03-01T07:12:04;28.10;;;15.73;;
52272;SDS011;38227;50.942;4.016;2023-03-01T07:14:33;29.12;;;15.95;;
52272;SDS011;38227;50.942;4.016;2023-03-01T07:17:00;30.48;;;15.90;;
52272;SDS011;38227;50.942;4.016;2023-03-01T07:19:28;29.73;;;14.98;;
52272;SDS011;38227;50.942;4.016;2023-03-01T07:21:57;27.13;;;14.95;;
52272;SDS011;38227;50.942;4.016;2023-03-01T07:24:26;27.17;;;14.50;;
52272;SDS011;38227;50.942;4.016;2023-03-01T07:26:54;23.00;;;13.73;;
52272;SDS011;38227;50.942;4.016;2023-03-01T07:29:22;32.67;;;14.68;;
52272;SDS011;38227;50.942;4.016;2023-03-01T07:31:51;25.75;;;14.02;;
52272;SDS011;38227;50.942;4.016;2023-03-01T07:34:22;32.60;;;16.00;;
52272;SDS011;38227;50.942;4.016;2023-03-01T07:36:49;30.02;;;13.30;;
52272;SDS011;38227;50.942;4.016;2023-03-01T07:39:22;23.02;;;12.63;;
52272;SDS011;38227;50.942;4.016;2023-03-01T07:41:51;26.00;;;11.73;;
52272;SDS011;38227;50.942;4.016;2023-03-01T07:44:19;24.12;;;11.25;;
52272;SDS011;38227;50.942;4.016;2023-03-01T07:46:47;23.25;;;11.12;;
52272;SDS011;38227;50.942;4.016;2023-03-01T07:49:17;20.37;;;10.75;;
52272;SDS011;38227;50.942;4.016;2023-03-01T07:51:45;20.10;;;10.68;;
52272;SDS011;38227;50.942;4.016;2023-03-01T07:54:13;16.75;;;10.63;;
52272;SDS011;38227;50.942;4.016;2023-03-01T07:56:44;16.85;;;9.88;;
52272;SDS011;38227;50.942;4.016;2023-03-01T07:59:16;20.33;;;10.25;;
52272;SDS011;38227;50.942;4.016;2023-03-01T08:01:46;23.77;;;9.90;;
52272;SDS011;38227;50.942;4.016;2023-03-01T08:04:14;15.77;;;9.48;;
52272;SDS011;38227;50.942;4.016;2023-03-01T08:06:44;15.07;;;9.20;;
52272;SDS011;38227;50.942;4.016;2023-03-01T08:09:22;18.25;;;9.50;;
52272;SDS011;38227;50.942;4.016;2023-03-01T08:11:55;15.60;;;9.38;;
52272;SDS011;38227;50.942;4.016;2023-03-01T08:14:26;15.68;;;9.52;;
52272;SDS011;38227;50.942;4.016;2023-03-01T08:16:54;68.20;;;13.20;;
52272;SDS011;38227;50.942;4.016;2023-03-01T08:19:24;34.08;;;10.57;;
52272;SDS011;38227;50.942;4.016;2023-03-01T08:21:55;24.48;;;8.57;;
52272;SDS011;38227;50.942;4.016;2023-03-01T08:24:25;21.12;;;8.90;;
52272;SDS011;38227;50.942;4.016;2023-03-01T08:27:03;17.37;;;8.02;;
52272;SDS011;38227;50.942;4.016;2023-03-01T08:29:32;14.32;;;8.30;;
52272;SDS011;38227;50.942;4.016;2023-03-01T08:32:00;14.57;;;8.30;;
52272;SDS011;38227;50.942;4.016;2023-03-01T08:34:32;12.57;;;8.07;;
52272;SDS011;38227;50.942;4.016;2023-03-01T08:37:00;16.60;;;9.63;;
52272;SDS011;38227;50.942;4.016;2023-03-01T08:39:31;16.25;;;8.75;;
52272;SDS011;38227;50.942;4.016;2023-03-01T08:42:01;17.20;;;10.35;;
52272;SDS011;38227;50.942;4.016;2023-03-01T08:44:29;14.02;;;9.00;;
52272;SDS011;38227;50.942;4.016;2023-03-01T08:46:58;13.40;;;8.27;;
52272;SDS011;38227;50.942;4.016;2023-03-01T08:49:27;14.65;;;8.40;;
52272;SDS011;38227;50.942;4.016;2023-03-01T08:51:56;13.15;;;8.20;;
52272;SDS011;38227;50.942;4.016;2023-03-01T08:54:29;15.00;;;8.18;;
52272;SDS011;38227;50.942;4.016;2023-03-01T08:57:02;14.63;;;7.65;;
52272;SDS011;38227;50.942;4.016;2023-03-01T08:59:29;16.00;;;8.00;;
52272;SDS011;38227;50.942;4.016;2023-03-01T09:02:02;12.80;;;8.07;;
52272;SDS011;38227;50.942;4.016;2023-03-01T09:04:33;12.60;;;8.20;;
52272;SDS011;38227;50.942;4.016;2023-03-01T09:07:10;12.32;;;8.10;;
52272;SDS011;38227;50.942;4.016;2023-03-01T09:09:39;11.93;;;8.05;;
52272;SDS011;38227;50.942;4.016;2023-03-01T09:12:07;13.73;;;8.63;;
52272;SDS011;38227;50.942;4.016;2023-03-01T09:14:35;11.88;;;8.30;;
52272;SDS011;38227;50.942;4.016;2023-03-01T09:17:03;14.15;;;8.45;;
52272;SDS011;38227;50.942;4.016;2023-03-01T09:19:34;11.82;;;8.70;;
52272;SDS011;38227;50.942;4.016;2023-03-01T09:22:04;16.02;;;9.27;;
52272;SDS011;38227;50.942;4.016;2023-03-01T09:24:34;12.18;;;8.40;;
52272;SDS011;38227;50.942;4.016;2023-03-01T09:27:05;12.37;;;7.95;;
52272;SDS011;38227;50.942;4.016;2023-03-01T09:29:34;10.15;;;8.00;;
52272;SDS011;38227;50.942;4.016;2023-03-01T09:32:02;13.50;;;8.48;;
52272;SDS011;38227;50.942;4.016;2023-03-01T09:34:32;12.15;;;8.52;;
52272;SDS011;38227;50.942;4.016;2023-03-01T09:37:20;13.30;;;8.07;;
52272;SDS011;38227;50.942;4.016;2023-03-01T09:39:50;17.30;;;8.80;;
52272;SDS011;38227;50.942;4.016;2023-03-01T09:42:21;14.50;;;8.25;;
52272;SDS011;38227;50.942;4.016;2023-03-01T09:44:58;11.32;;;8.43;;
52272;SDS011;38227;50.942;4.016;2023-03-01T09:47:34;13.80;;;8.02;;
52272;SDS011;38227;50.942;4.016;2023-03-01T09:50:12;17.80;;;9.02;;
52272;SDS011;38227;50.942;4.016;2023-03-01T09:53:00;16.65;;;9.45;;
52272;SDS011;38227;50.942;4.016;2023-03-01T09:55:44;14.70;;;8.90;;
52272;SDS011;38227;50.942;4.016;2023-03-01T10:01:33;11.43;;;8.10;;
52272;SDS011;38227;50.942;4.016;2023-03-01T10:10:56;12.77;;;8.90;;
52272;SDS011;38227;50.942;4.016;2023-03-01T10:14:03;16.17;;;10.45;;
52272;SDS011;38227;50.942;4.016;2023-03-01T10:16:52;13.95;;;9.40;;
52272;SDS011;38227;50.942;4.016;2023-03-01T10:19:32;16.95;;;10.20;;
52272;SDS011;38227;50.942;4.016;2023-03-01T10:22:12;15.48;;;10.20;;
52272;SDS011;38227;50.942;4.016;2023-03-01T10:24:58;14.40;;;9.70;;
52272;SDS011;38227;50.942;4.016;2023-03-01T10:27:50;17.15;;;10.07;;
52272;SDS011;38227;50.942;4.016;2023-03-01T10:30:32;13.52;;;9.57;;
52272;SDS011;38227;50.942;4.016;2023-03-01T10:33:29;15.40;;;9.23;;
52272;SDS011;38227;50.942;4.016;2023-03-01T10:35:59;15.52;;;9.55;;
52272;SDS011;38227;50.942;4.016;2023-03-01T10:39:13;17.40;;;10.45;;
52272;SDS011;38227;50.942;4.016;2023-03-01T10:41:57;19.85;;;10.30;;
52272;SDS011;38227;50.942;4.016;2023-03-01T10:44:42;29.02;;;12.25;;
52272;SDS011;38227;50.942;4.016;2023-03-01T10:47:25;15.98;;;9.05;;
52272;SDS011;38227;50.942;4.016;2023-03-01T10:50:18;16.33;;;9.57;;
52272;SDS011;38227;50.942;4.016;2023-03-01T10:52:57;14.85;;;9.32;;
52272;SDS011;38227;50.942;4.016;2023-03-01T10:55:29;16.00;;;9.50;;
